El Reno Rgnl Information

FAA: RQO - ICAO: KRQO

El Reno Rgnl (Airport) Location

State Oklahoma
County Canadian
City El Reno
El Reno Rgnl (Airport) is 4 miles southwest of El Reno, OK.
Latitude 35-28-21.8000N
Longitude 098-00-20.7000W
Elevation 1,420ft

El Reno Rgnl METARs

METAR KRQO 172015Z AUTO 17021G31KT CLR 33/14 A2982 RMK AO2 PWINO T03340145
Altimeter 29.82"
Temperature 33.4°C (92.1°F)
Wind 170° at 21KT with gusts to 31KT
Clouds Skies are clear.
Visibility mi
Time observed: 2022-05-17T20:15:00Z

El Reno Rgnl (Airport) Details

Status Operational
Activation February 1943
Ownership Public
Usage Public
Chart DALLAS-FT WORTH
ATC on-site No
Beacon schedule sunset-sunrise
Beacon color clear green

El Reno Rgnl (Airport) Contacts

Owner CITY OF EL RENO
Owner address PO BOX 70, EL RENO, OK 73036
Owner phone 405-262-4070
Manager LAKEMONT SHORES FD
Manager address PO BOX 610, DISNEY, OK 74340
Manager phone 918-435-8351

El Reno Rgnl Radio Frequencies

El Reno Rgnl (Airport) Radio Frequencies

UNICOM 122.8
Common traffic advisory frequency (CTAF) 122.8